createdAt,value
2022-10-17T00:17:15.645Z,16.10
2022-10-17T00:34:37.672Z,16.10
2022-10-17T00:45:01.819Z,16.00
2022-10-17T00:47:30.590Z,16.00
2022-10-17T00:52:31.319Z,15.90
2022-10-17T00:55:03.005Z,15.80
2022-10-17T00:57:33.513Z,15.80
2022-10-17T01:00:06.024Z,15.70
2022-10-17T01:05:07.470Z,15.70
2022-10-17T01:07:37.429Z,15.70
2022-10-17T01:10:08.404Z,14.80
2022-10-17T01:12:46.411Z,15.70
2022-10-17T01:15:22.262Z,15.70
2022-10-17T01:18:00.712Z,15.60
2022-10-17T01:21:06.696Z,15.60
2022-10-17T01:24:01.515Z,15.60
2022-10-17T01:26:43.876Z,15.60
2022-10-17T01:29:35.754Z,15.60
2022-10-17T01:32:13.999Z,15.50
2022-10-17T01:34:50.256Z,15.50
2022-10-17T01:37:21.896Z,15.50
2022-10-17T01:39:53.852Z,15.40
2022-10-17T01:42:27.760Z,15.40
2022-10-17T01:44:59.644Z,15.40
2022-10-17T01:47:32.404Z,15.40
2022-10-17T01:50:06.724Z,15.40
2022-10-17T01:52:43.090Z,15.30
2022-10-17T01:55:15.510Z,15.20
2022-10-17T01:57:47.529Z,15.20
2022-10-17T02:00:20.849Z,13.70
2022-10-17T02:03:01.184Z,15.10
2022-10-17T02:05:34.247Z,15.10
2022-10-17T02:10:36.542Z,15.00
2022-10-17T02:13:11.542Z,14.90
2022-10-17T02:15:57.432Z,14.90
2022-10-17T02:18:43.809Z,14.90
2022-10-17T02:21:19.253Z,14.80
2022-10-17T02:23:55.217Z,14.80
2022-10-17T02:26:28.124Z,14.80
2022-10-17T02:29:04.450Z,14.70
2022-10-17T02:31:37.232Z,14.70
2022-10-17T02:34:14.229Z,14.70
2022-10-17T02:36:50.395Z,14.70
2022-10-17T02:39:20.395Z,14.80
2022-10-17T02:41:50.713Z,14.70
2022-10-17T02:46:56.057Z,14.70
2022-10-17T02:49:32.164Z,14.60
2022-10-17T02:52:08.237Z,14.70
2022-10-17T02:54:42.209Z,14.70
2022-10-17T02:57:15.901Z,14.70
2022-10-17T02:59:46.998Z,14.70
2022-10-17T03:04:46.738Z,14.60
2022-10-17T03:22:08.756Z,14.70
2022-10-17T03:39:35.429Z,14.40
2022-10-17T03:44:33.324Z,13.10
2022-10-17T03:56:59.221Z,14.30
2022-10-17T04:12:08.351Z,13.90
2022-10-17T04:24:42.443Z,14.10
2022-10-17T04:27:17.577Z,14.10
2022-10-17T04:33:32.418Z,12.60
2022-10-17T04:36:06.695Z,14.10
2022-10-17T04:41:09.083Z,14.20
2022-10-17T04:43:40.575Z,14.20
2022-10-17T04:46:10.950Z,14.20
2022-10-17T04:48:41.698Z,14.20
2022-10-17T04:51:14.533Z,14.20
2022-10-17T04:58:59.342Z,14.10
2022-10-17T05:03:59.569Z,11.80
2022-10-17T05:09:31.670Z,14.10
2022-10-17T05:14:31.315Z,13.90
2022-10-17T05:17:09.177Z,13.90
2022-10-17T05:29:37.494Z,13.70
2022-10-17T05:32:12.577Z,12.20
2022-10-17T05:39:46.769Z,13.50
2022-10-17T05:44:51.214Z,13.50
2022-10-17T06:00:20.251Z,12.80
2022-10-17T06:15:30.449Z,13.50
2022-10-17T06:25:51.288Z,12.60
2022-10-17T06:30:49.376Z,13.50
2022-10-17T06:35:56.831Z,13.70
2022-10-17T06:41:04.938Z,13.70
2022-10-17T06:43:33.552Z,11.80
2022-10-17T06:46:26.910Z,13.70
2022-10-17T06:51:37.952Z,13.70
2022-10-17T07:02:28.563Z,13.80
2022-10-17T07:19:54.086Z,11.30
2022-10-17T07:35:09.373Z,14.20
2022-10-17T07:40:10.041Z,14.30
2022-10-17T07:45:08.750Z,13.10
2022-10-17T07:47:38.167Z,13.60
2022-10-17T07:50:16.063Z,14.50
2022-10-17T08:00:10.709Z,14.70
2022-10-17T08:02:42.746Z,19.60
2022-10-17T08:05:11.051Z,13.70
2022-10-17T08:07:42.235Z,14.90
2022-10-17T08:10:13.544Z,14.90
2022-10-17T08:15:11.569Z,17.80
2022-10-17T08:20:09.270Z,13.80
2022-10-17T08:22:39.740Z,13.10
2022-10-17T08:25:13.252Z,15.20
2022-10-17T08:30:14.403Z,15.40
2022-10-17T08:40:16.734Z,13.40
2022-10-17T08:43:04.195Z,15.70
2022-10-17T08:45:40.569Z,15.70
2022-10-17T08:48:13.625Z,15.80
2022-10-17T08:50:46.360Z,15.90
2022-10-17T08:53:19.248Z,15.10
2022-10-17T08:55:50.419Z,16.00
2022-10-17T08:58:21.760Z,16.10
2022-10-17T09:00:58.504Z,16.20
2022-10-17T09:03:48.396Z,16.20
2022-10-17T09:06:25.230Z,16.30
2022-10-17T09:09:14.579Z,16.50
2022-10-17T09:11:57.857Z,16.90
2022-10-17T09:14:51.939Z,17.20
2022-10-17T09:17:32.539Z,17.70
2022-10-17T09:20:06.006Z,18.10
2022-10-17T09:22:40.005Z,18.40
2022-10-17T09:25:13.367Z,18.70
2022-10-17T09:27:46.752Z,19.00
2022-10-17T09:30:44.182Z,19.30
2022-10-17T09:33:23.377Z,19.50
2022-10-17T09:36:07.345Z,19.80
2022-10-17T09:38:43.596Z,20.00
2022-10-17T09:44:18.501Z,20.50
2022-10-17T09:47:01.068Z,20.70
2022-10-17T09:49:34.775Z,20.90
2022-10-17T09:52:05.883Z,21.10
2022-10-17T09:54:43.640Z,21.20
2022-10-17T09:57:15.483Z,20.20
2022-10-17T09:59:56.671Z,21.50
2022-10-17T10:02:27.161Z,21.80
2022-10-17T10:05:06.467Z,21.90
2022-10-17T10:07:37.396Z,22.00
2022-10-17T10:10:08.957Z,22.20
2022-10-17T10:12:39.643Z,22.40
2022-10-17T10:15:33.866Z,22.50
2022-10-17T10:20:34.702Z,22.80
2022-10-17T10:23:07.623Z,20.70
2022-10-17T10:25:36.853Z,23.00
2022-10-17T10:28:11.922Z,21.20
2022-10-17T10:30:41.945Z,23.20
2022-10-17T10:33:14.845Z,23.40
2022-10-17T10:38:18.351Z,23.50
2022-10-17T10:40:48.991Z,23.60
2022-10-17T10:43:31.447Z,23.80
2022-10-17T10:46:02.037Z,23.80
2022-10-17T10:48:35.631Z,23.60
2022-10-17T10:51:07.746Z,24.10
2022-10-17T10:53:44.171Z,24.20
2022-10-17T10:56:17.851Z,24.30
2022-10-17T10:58:55.751Z,23.40
2022-10-17T11:01:31.576Z,24.50
2022-10-17T11:04:20.790Z,24.50
2022-10-17T11:06:51.596Z,24.70
2022-10-17T11:09:35.964Z,24.90
2022-10-17T11:12:09.106Z,25.00
2022-10-17T11:14:45.130Z,25.20
2022-10-17T11:17:23.319Z,25.30
2022-10-17T11:19:59.620Z,25.50
2022-10-17T11:22:32.859Z,25.50
2022-10-17T11:25:07.225Z,25.60
2022-10-17T11:32:38.809Z,28.40
2022-10-17T11:35:16.316Z,24.80
2022-10-17T11:37:54.631Z,26.40
2022-10-17T11:40:31.300Z,26.40
2022-10-17T11:43:02.754Z,26.60
2022-10-17T11:45:35.148Z,25.30
2022-10-17T11:48:12.607Z,26.80
2022-10-17T11:53:51.435Z,27.10
2022-10-17T11:56:28.181Z,27.10
2022-10-17T11:59:03.339Z,27.20
2022-10-17T12:01:47.082Z,27.30
2022-10-17T12:04:33.838Z,27.30
2022-10-17T12:07:15.450Z,27.40
2022-10-17T12:09:48.117Z,27.50
2022-10-17T12:12:27.596Z,27.50
2022-10-17T12:15:16.736Z,27.80
2022-10-17T12:17:47.397Z,27.90
2022-10-17T12:20:37.160Z,27.90
2022-10-17T12:23:29.215Z,28.00
2022-10-17T12:26:05.447Z,27.90
2022-10-17T12:28:47.085Z,27.90
2022-10-17T12:31:29.636Z,27.90
2022-10-17T12:34:03.335Z,27.90
2022-10-17T12:36:44.020Z,27.70
2022-10-17T12:39:54.839Z,27.60
2022-10-17T12:42:50.953Z,27.40
2022-10-17T12:45:53.198Z,28.60
2022-10-17T12:49:17.804Z,27.10
2022-10-17T12:55:10.999Z,26.10
2022-10-17T13:02:37.967Z,27.20
2022-10-17T13:05:21.497Z,26.40
2022-10-17T13:07:51.365Z,26.40
2022-10-17T13:13:10.955Z,26.20
2022-10-17T13:18:21.150Z,25.60
2022-10-17T13:21:04.661Z,26.00
2022-10-17T13:23:36.124Z,25.90
2022-10-17T13:26:08.840Z,25.80
2022-10-17T13:31:29.325Z,24.40
2022-10-17T13:33:59.326Z,25.50
2022-10-17T13:36:32.568Z,25.50
2022-10-17T13:39:07.629Z,25.40
2022-10-17T13:41:42.850Z,25.40
2022-10-17T13:44:15.317Z,25.30
2022-10-17T13:46:45.276Z,25.30
2022-10-17T13:49:24.447Z,25.20
2022-10-17T13:51:56.303Z,25.10
2022-10-17T13:54:39.604Z,24.90
2022-10-17T13:57:22.043Z,25.00
2022-10-17T13:59:53.105Z,25.00
2022-10-17T14:02:25.969Z,24.90
2022-10-17T14:05:16.792Z,24.60
2022-10-17T14:08:11.366Z,24.90
2022-10-17T14:11:29.450Z,24.90
2022-10-17T14:14:00.956Z,24.80
2022-10-17T14:16:36.918Z,26.30
2022-10-17T14:19:20.343Z,24.80
2022-10-17T14:21:50.289Z,24.90
2022-10-17T14:24:31.562Z,24.90
2022-10-17T14:27:05.050Z,24.80
2022-10-17T14:30:03.177Z,24.80
2022-10-17T14:33:03.573Z,24.80
2022-10-17T14:38:15.211Z,24.80
2022-10-17T14:40:52.376Z,24.70
2022-10-17T14:43:33.630Z,24.70
2022-10-17T14:46:27.759Z,24.60
2022-10-17T14:49:28.315Z,27.10
2022-10-17T14:52:42.012Z,24.50
2022-10-17T14:55:49.775Z,24.50
2022-10-17T14:58:32.864Z,23.80
2022-10-17T15:04:03.128Z,26.20
2022-10-17T15:09:12.697Z,23.50
2022-10-17T15:11:44.031Z,24.30
2022-10-17T15:19:30.234Z,24.20
2022-10-17T15:29:24.993Z,24.20
2022-10-17T15:34:23.304Z,23.90
2022-10-17T15:36:53.947Z,23.80
2022-10-17T15:41:50.476Z,22.20
2022-10-17T15:44:18.646Z,23.10
2022-10-17T15:50:19.809Z,23.10
2022-10-17T15:53:09.658Z,23.40
2022-10-17T15:59:18.874Z,22.40
2022-10-17T16:02:44.264Z,23.10
2022-10-17T16:05:16.324Z,23.00
2022-10-17T16:10:23.015Z,22.90
2022-10-17T16:15:48.479Z,22.80
2022-10-17T16:22:43.053Z,22.60
2022-10-17T16:25:51.008Z,22.60
2022-10-17T16:28:14.477Z,22.50
2022-10-17T16:30:46.387Z,22.50
2022-10-17T16:35:46.893Z,22.40
2022-10-17T16:41:38.820Z,23.20
2022-10-17T16:44:13.432Z,22.00
2022-10-17T16:46:48.224Z,22.00
2022-10-17T16:49:25.343Z,21.90
2022-10-17T16:59:21.204Z,21.70
2022-10-17T17:04:19.113Z,24.60
2022-10-17T17:14:15.708Z,21.30
2022-10-17T17:16:48.336Z,21.30
2022-10-17T17:19:20.618Z,21.20
2022-10-17T17:24:25.577Z,21.20
2022-10-17T17:26:55.545Z,21.20
2022-10-17T17:29:25.108Z,19.30
2022-10-17T17:31:54.913Z,21.00
2022-10-17T17:34:25.411Z,20.90
2022-10-17T17:47:15.777Z,20.80
2022-10-17T17:49:44.387Z,19.50
2022-10-17T17:57:37.093Z,20.60
2022-10-17T18:00:08.289Z,20.50
2022-10-17T18:02:42.123Z,18.50
2022-10-17T18:05:12.918Z,19.00
2022-10-17T18:26:08.979Z,19.90
2022-10-17T18:28:58.206Z,19.80
2022-10-17T18:32:03.001Z,19.80
2022-10-17T18:43:54.462Z,19.50
2022-10-17T18:46:28.063Z,19.50
2022-10-17T18:48:59.424Z,19.40
2022-10-17T18:51:53.051Z,23.90
2022-10-17T18:54:59.147Z,19.40
2022-10-17T18:59:59.826Z,19.40
2022-10-17T19:02:58.286Z,19.50
2022-10-17T19:05:36.807Z,19.50
2022-10-17T19:14:31.741Z,19.40
2022-10-17T19:22:15.659Z,19.10
2022-10-17T19:25:10.649Z,18.80
2022-10-17T19:27:41.405Z,18.90
2022-10-17T19:30:18.195Z,17.00
2022-10-17T19:40:36.346Z,18.80
2022-10-17T19:50:55.157Z,18.60
2022-10-17T19:58:09.779Z,18.40
2022-10-17T20:01:24.305Z,18.40
2022-10-17T20:06:23.511Z,18.50
2022-10-17T20:11:23.104Z,18.50
2022-10-17T20:14:03.109Z,18.60
2022-10-17T20:16:37.882Z,18.60
2022-10-17T20:19:08.449Z,18.60
2022-10-17T20:24:25.055Z,18.40
2022-10-17T20:29:24.390Z,18.20
2022-10-17T20:39:29.176Z,18.00
2022-10-17T20:41:57.839Z,17.60
2022-10-17T20:44:27.595Z,18.00
2022-10-17T20:47:26.490Z,18.00
2022-10-17T20:57:36.184Z,18.00
2022-10-17T21:00:07.683Z,17.70
2022-10-17T21:05:14.926Z,17.70
2022-10-17T21:14:09.890Z,17.80
2022-10-17T21:16:45.003Z,17.70
2022-10-17T21:19:17.864Z,17.60
2022-10-17T21:21:47.530Z,17.60
2022-10-17T21:24:19.328Z,17.60
2022-10-17T21:27:14.684Z,16.90
2022-10-17T21:30:24.900Z,17.50
2022-10-17T21:54:25.942Z,17.20
2022-10-17T21:59:24.754Z,17.10
2022-10-17T22:06:52.435Z,17.10
2022-10-17T22:09:24.831Z,21.90
2022-10-17T22:11:55.430Z,17.10
2022-10-17T22:14:25.428Z,17.00
2022-10-17T22:19:24.776Z,17.00
2022-10-17T22:21:53.970Z,16.50
2022-10-17T22:24:24.423Z,17.00
2022-10-17T22:34:19.464Z,16.80
2022-10-17T22:41:48.353Z,16.70
2022-10-17T22:44:27.164Z,16.60
2022-10-17T22:56:53.370Z,16.60
2022-10-17T23:14:15.470Z,16.40
2022-10-17T23:24:13.562Z,16.30
2022-10-17T23:31:41.258Z,16.40
2022-10-17T23:39:19.394Z,16.30
2022-10-17T23:44:22.610Z,16.20
2022-10-17T23:46:52.538Z,16.10
2022-10-17T23:51:57.478Z,16.10
